Terminal Aerodrome Forecast
Issued by NWS Bismarck, ND

Home | Current Version | Previous Version | Text Only | Print | Product List | Glossary On
Versions: 1 2 3 4 5 6 7 8 9 10 11 12 13 14
000
FTUS43 KBIS 241100
TAFBIS
TAF
KBIS 241134Z 2412/2512 31012KT P6SM -SN BKN006 OVC012
      TEMPO 2412/2415 SCT012 SCT040
     FM241500 33014KT P6SM SCT012 SCT040
     FM250000 28010KT P6SM BKN035 OVC080
     FM250300 30008KT P6SM BKN025 OVC035=

USA.gov is the U.S. government's official web portal to all federal, state and local government web resources and services.